sensor_id;sensor_type;location;lat;lon;timestamp;temperature;humidity
65203;HTU21D;51788;45.124;38.966;2024-02-21T00:01:07;1.93;74.59
65203;HTU21D;51788;45.124;38.966;2024-02-21T00:03:33;1.86;74.73
65203;HTU21D;51788;45.124;38.966;2024-02-21T00:05:59;1.83;74.77
65203;HTU21D;51788;45.124;38.966;2024-02-21T00:08:24;1.81;74.83
65203;HTU21D;51788;45.124;38.966;2024-02-21T00:10:50;1.83;74.83
65203;HTU21D;51788;45.124;38.966;2024-02-21T00:13:17;1.80;74.81
65203;HTU21D;51788;45.124;38.966;2024-02-21T00:15:43;1.76;74.84
65203;HTU21D;51788;45.124;38.966;2024-02-21T00:18:09;1.72;74.92
65203;HTU21D;51788;45.124;38.966;2024-02-21T00:20:36;1.75;74.98
65203;HTU21D;51788;45.124;38.966;2024-02-21T00:23:02;1.81;74.88
65203;HTU21D;51788;45.124;38.966;2024-02-21T00:25:29;1.82;74.76
65203;HTU21D;51788;45.124;38.966;2024-02-21T00:27:55;1.83;74.69
65203;HTU21D;51788;45.124;38.966;2024-02-21T00:30:21;1.84;74.64
65203;HTU21D;51788;45.124;38.966;2024-02-21T00:32:47;1.78;74.69
65203;HTU21D;51788;45.124;38.966;2024-02-21T00:35:14;1.80;74.78
65203;HTU21D;51788;45.124;38.966;2024-02-21T00:37:40;1.82;74.69
65203;HTU21D;51788;45.124;38.966;2024-02-21T00:40:06;1.80;74.70
65203;HTU21D;51788;45.124;38.966;2024-02-21T00:42:32;1.81;74.66
65203;HTU21D;51788;45.124;38.966;2024-02-21T00:44:58;1.79;74.71
65203;HTU21D;51788;45.124;38.966;2024-02-21T00:47:24;1.71;74.73
65203;HTU21D;51788;45.124;38.966;2024-02-21T00:49:50;1.65;74.97
65203;HTU21D;51788;45.124;38.966;2024-02-21T00:52:16;1.62;75.05
65203;HTU21D;51788;45.124;38.966;2024-02-21T00:54:42;1.55;75.11
65203;HTU21D;51788;45.124;38.966;2024-02-21T00:57:08;1.56;75.31
65203;HTU21D;51788;45.124;38.966;2024-02-21T00:59:34;1.54;75.25
65203;HTU21D;51788;45.124;38.966;2024-02-21T01:02:00;1.51;75.30
65203;HTU21D;51788;45.124;38.966;2024-02-21T01:04:26;1.53;75.34
65203;HTU21D;51788;45.124;38.966;2024-02-21T01:06:52;1.51;75.28
65203;HTU21D;51788;45.124;38.966;2024-02-21T01:09:18;1.51;75.41
65203;HTU21D;51788;45.124;38.966;2024-02-21T01:11:44;1.49;75.41
65203;HTU21D;51788;45.124;38.966;2024-02-21T01:14:10;1.43;75.34
65203;HTU21D;51788;45.124;38.966;2024-02-21T01:16:37;1.47;75.35
65203;HTU21D;51788;45.124;38.966;2024-02-21T01:19:03;1.49;75.28
65203;HTU21D;51788;45.124;38.966;2024-02-21T01:21:29;1.49;75.32
65203;HTU21D;51788;45.124;38.966;2024-02-21T01:23:55;1.43;75.34
65203;HTU21D;51788;45.124;38.966;2024-02-21T01:26:20;1.36;75.38
65203;HTU21D;51788;45.124;38.966;2024-02-21T01:28:46;1.36;75.52
65203;HTU21D;51788;45.124;38.966;2024-02-21T01:31:12;1.35;75.45
65203;HTU21D;51788;45.124;38.966;2024-02-21T01:33:38;1.29;75.50
65203;HTU21D;51788;45.124;38.966;2024-02-21T01:36:05;1.28;75.59
65203;HTU21D;51788;45.124;38.966;2024-02-21T01:38:33;1.24;75.51
65203;HTU21D;51788;45.124;38.966;2024-02-21T01:41:00;1.27;75.60
65203;HTU21D;51788;45.124;38.966;2024-02-21T01:43:26;1.27;75.57
65203;HTU21D;51788;45.124;38.966;2024-02-21T01:45:54;1.31;75.53
65203;HTU21D;51788;45.124;38.966;2024-02-21T01:48:22;1.31;75.57
65203;HTU21D;51788;45.124;38.966;2024-02-21T01:50:49;1.31;75.47
65203;HTU21D;51788;45.124;38.966;2024-02-21T01:53:20;1.27;75.50
65203;HTU21D;51788;45.124;38.966;2024-02-21T01:55:47;1.28;75.48
65203;HTU21D;51788;45.124;38.966;2024-02-21T01:58:17;1.23;75.59
65203;HTU21D;51788;45.124;38.966;2024-02-21T02:00:45;1.16;75.67
65203;HTU21D;51788;45.124;38.966;2024-02-21T02:03:12;1.16;75.76
65203;HTU21D;51788;45.124;38.966;2024-02-21T02:05:44;1.14;75.82
65203;HTU21D;51788;45.124;38.966;2024-02-21T02:08:15;1.16;75.79
65203;HTU21D;51788;45.124;38.966;2024-02-21T02:10:42;1.18;75.76
65203;HTU21D;51788;45.124;38.966;2024-02-21T02:13:08;1.17;75.80
65203;HTU21D;51788;45.124;38.966;2024-02-21T02:15:48;1.11;75.76
65203;HTU21D;51788;45.124;38.966;2024-02-21T02:18:15;1.10;75.98
65203;HTU21D;51788;45.124;38.966;2024-02-21T02:20:42;1.08;75.98
65203;HTU21D;51788;45.124;38.966;2024-02-21T02:23:29;1.12;76.06
65203;HTU21D;51788;45.124;38.966;2024-02-21T02:25:57;1.10;75.92
65203;HTU21D;51788;45.124;38.966;2024-02-21T02:28:23;1.12;75.95
65203;HTU21D;51788;45.124;38.966;2024-02-21T02:30:50;1.13;75.92
65203;HTU21D;51788;45.124;38.966;2024-02-21T02:33:16;1.18;75.99
65203;HTU21D;51788;45.124;38.966;2024-02-21T02:35:45;1.22;76.02
65203;HTU21D;51788;45.124;38.966;2024-02-21T02:38:11;1.22;76.04
65203;HTU21D;51788;45.124;38.966;2024-02-21T02:40:39;1.18;75.99
65203;HTU21D;51788;45.124;38.966;2024-02-21T02:43:06;1.12;76.34
65203;HTU21D;51788;45.124;38.966;2024-02-21T02:45:32;1.07;76.60
65203;HTU21D;51788;45.124;38.966;2024-02-21T02:47:59;1.08;76.54
65203;HTU21D;51788;45.124;38.966;2024-02-21T02:50:26;1.09;76.66
65203;HTU21D;51788;45.124;38.966;2024-02-21T02:52:53;1.07;76.70
65203;HTU21D;51788;45.124;38.966;2024-02-21T02:55:20;1.04;76.63
65203;HTU21D;51788;45.124;38.966;2024-02-21T02:57:46;1.02;76.70
65203;HTU21D;51788;45.124;38.966;2024-02-21T03:00:13;1.03;76.75
65203;HTU21D;51788;45.124;38.966;2024-02-21T03:02:41;1.01;76.73
65203;HTU21D;51788;45.124;38.966;2024-02-21T03:05:17;1.01;76.90
65203;HTU21D;51788;45.124;38.966;2024-02-21T03:07:44;0.95;76.81
65203;HTU21D;51788;45.124;38.966;2024-02-21T03:10:11;0.96;76.88
65203;HTU21D;51788;45.124;38.966;2024-02-21T03:12:37;1.02;77.05
65203;HTU21D;51788;45.124;38.966;2024-02-21T03:15:04;1.04;76.88
65203;HTU21D;51788;45.124;38.966;2024-02-21T03:17:31;1.06;76.92
65203;HTU21D;51788;45.124;38.966;2024-02-21T03:19:58;0.98;77.15
65203;HTU21D;51788;45.124;38.966;2024-02-21T03:22:26;0.94;77.21
65203;HTU21D;51788;45.124;38.966;2024-02-21T03:24:52;0.91;77.49
65203;HTU21D;51788;45.124;38.966;2024-02-21T03:27:18;0.90;77.54
65203;HTU21D;51788;45.124;38.966;2024-02-21T03:29:44;0.89;77.69
65203;HTU21D;51788;45.124;38.966;2024-02-21T03:32:10;0.87;77.60
65203;HTU21D;51788;45.124;38.966;2024-02-21T03:34:36;0.87;77.79
65203;HTU21D;51788;45.124;38.966;2024-02-21T03:37:02;0.84;77.71
65203;HTU21D;51788;45.124;38.966;2024-02-21T03:39:31;0.89;77.70
65203;HTU21D;51788;45.124;38.966;2024-02-21T03:41:58;0.91;77.69
65203;HTU21D;51788;45.124;38.966;2024-02-21T03:44:26;0.90;77.66
65203;HTU21D;51788;45.124;38.966;2024-02-21T03:46:53;0.88;77.71
65203;HTU21D;51788;45.124;38.966;2024-02-21T03:49:19;0.86;77.69
65203;HTU21D;51788;45.124;38.966;2024-02-21T03:51:45;0.86;77.82
65203;HTU21D;51788;45.124;38.966;2024-02-21T03:54:11;0.89;77.96
65203;HTU21D;51788;45.124;38.966;2024-02-21T03:56:37;0.91;77.81
65203;HTU21D;51788;45.124;38.966;2024-02-21T03:59:06;0.93;77.75
65203;HTU21D;51788;45.124;38.966;2024-02-21T04:01:32;0.90;77.65
65203;HTU21D;51788;45.124;38.966;2024-02-21T04:03:58;0.89;77.67
65203;HTU21D;51788;45.124;38.966;2024-02-21T04:06:24;0.89;77.65
65203;HTU21D;51788;45.124;38.966;2024-02-21T04:08:50;0.92;77.81
65203;HTU21D;51788;45.124;38.966;2024-02-21T04:11:16;0.95;77.90
65203;HTU21D;51788;45.124;38.966;2024-02-21T04:13:43;0.90;77.83
65203;HTU21D;51788;45.124;38.966;2024-02-21T04:16:09;0.92;77.89
65203;HTU21D;51788;45.124;38.966;2024-02-21T04:18:35;0.91;77.82
65203;HTU21D;51788;45.124;38.966;2024-02-21T04:21:01;0.88;77.94
65203;HTU21D;51788;45.124;38.966;2024-02-21T04:23:27;0.86;78.06
65203;HTU21D;51788;45.124;38.966;2024-02-21T04:25:53;0.89;78.06
65203;HTU21D;51788;45.124;38.966;2024-02-21T04:28:19;0.86;78.01
65203;HTU21D;51788;45.124;38.966;2024-02-21T04:30:45;0.86;77.98
65203;HTU21D;51788;45.124;38.966;2024-02-21T04:33:11;0.90;77.85
65203;HTU21D;51788;45.124;38.966;2024-02-21T04:35:37;0.92;77.86
65203;HTU21D;51788;45.124;38.966;2024-02-21T04:38:03;0.92;77.81
65203;HTU21D;51788;45.124;38.966;2024-02-21T04:40:29;0.91;77.96
65203;HTU21D;51788;45.124;38.966;2024-02-21T04:42:57;0.90;78.09
65203;HTU21D;51788;45.124;38.966;2024-02-21T04:45:23;0.91;77.98
65203;HTU21D;51788;45.124;38.966;2024-02-21T04:47:49;0.98;78.08
65203;HTU21D;51788;45.124;38.966;2024-02-21T04:50:15;1.03;78.00
65203;HTU21D;51788;45.124;38.966;2024-02-21T04:52:41;1.07;77.95
65203;HTU21D;51788;45.124;38.966;2024-02-21T04:55:08;1.10;77.74
65203;HTU21D;51788;45.124;38.966;2024-02-21T04:57:34;1.09;77.79
65203;HTU21D;51788;45.124;38.966;2024-02-21T04:59:59;1.09;77.78
65203;HTU21D;51788;45.124;38.966;2024-02-21T05:02:25;1.08;77.77
65203;HTU21D;51788;45.124;38.966;2024-02-21T05:04:52;1.02;77.98
65203;HTU21D;51788;45.124;38.966;2024-02-21T05:07:19;1.02;78.05
65203;HTU21D;51788;45.124;38.966;2024-02-21T05:09:45;1.09;78.05
65203;HTU21D;51788;45.124;38.966;2024-02-21T05:12:11;1.13;77.85
65203;HTU21D;51788;45.124;38.966;2024-02-21T05:14:37;1.17;77.71
65203;HTU21D;51788;45.124;38.966;2024-02-21T05:17:04;1.14;77.66
65203;HTU21D;51788;45.124;38.966;2024-02-21T05:19:30;1.17;77.87
65203;HTU21D;51788;45.124;38.966;2024-02-21T05:21:56;1.22;77.76
65203;HTU21D;51788;45.124;38.966;2024-02-21T05:24:22;1.27;77.60
65203;HTU21D;51788;45.124;38.966;2024-02-21T05:26:48;1.22;77.62
65203;HTU21D;51788;45.124;38.966;2024-02-21T05:29:14;1.20;77.81
65203;HTU21D;51788;45.124;38.966;2024-02-21T05:31:55;1.19;77.82
65203;HTU21D;51788;45.124;38.966;2024-02-21T05:34:23;1.22;77.86
65203;HTU21D;51788;45.124;38.966;2024-02-21T05:36:49;1.32;77.65
65203;HTU21D;51788;45.124;38.966;2024-02-21T05:39:15;1.42;77.47
65203;HTU21D;51788;45.124;38.966;2024-02-21T05:41:45;1.49;77.33
65203;HTU21D;51788;45.124;38.966;2024-02-21T05:44:13;1.48;77.28
65203;HTU21D;51788;45.124;38.966;2024-02-21T05:46:39;1.52;77.30
65203;HTU21D;51788;45.124;38.966;2024-02-21T05:49:05;1.50;77.22
65203;HTU21D;51788;45.124;38.966;2024-02-21T05:51:33;1.46;77.27
65203;HTU21D;51788;45.124;38.966;2024-02-21T05:53:59;1.41;77.29
65203;HTU21D;51788;45.124;38.966;2024-02-21T05:56:25;1.40;77.37
65203;HTU21D;51788;45.124;38.966;2024-02-21T05:58:51;1.34;77.53
65203;HTU21D;51788;45.124;38.966;2024-02-21T06:01:18;1.38;77.56
65203;HTU21D;51788;45.124;38.966;2024-02-21T06:03:44;1.43;77.44
65203;HTU21D;51788;45.124;38.966;2024-02-21T06:06:10;1.39;77.43
65203;HTU21D;51788;45.124;38.966;2024-02-21T06:08:36;1.39;77.57
65203;HTU21D;51788;45.124;38.966;2024-02-21T06:11:02;1.46;77.55
65203;HTU21D;51788;45.124;38.966;2024-02-21T06:13:28;1.52;77.40
65203;HTU21D;51788;45.124;38.966;2024-02-21T06:15:54;1.58;77.23
65203;HTU21D;51788;45.124;38.966;2024-02-21T06:18:20;1.57;77.05
65203;HTU21D;51788;45.124;38.966;2024-02-21T06:20:47;1.55;77.36
65203;HTU21D;51788;45.124;38.966;2024-02-21T06:23:15;1.58;77.24
65203;HTU21D;51788;45.124;38.966;2024-02-21T06:25:41;1.58;77.27
65203;HTU21D;51788;45.124;38.966;2024-02-21T06:28:07;1.65;77.21
65203;HTU21D;51788;45.124;38.966;2024-02-21T06:30:33;1.72;77.11
65203;HTU21D;51788;45.124;38.966;2024-02-21T06:32:59;1.76;77.01
65203;HTU21D;51788;45.124;38.966;2024-02-21T06:35:25;1.79;76.95
65203;HTU21D;51788;45.124;38.966;2024-02-21T06:37:52;1.83;76.92
65203;HTU21D;51788;45.124;38.966;2024-02-21T06:40:22;1.82;76.89
65203;HTU21D;51788;45.124;38.966;2024-02-21T06:42:48;1.86;77.00
65203;HTU21D;51788;45.124;38.966;2024-02-21T06:45:15;1.94;76.90
65203;HTU21D;51788;45.124;38.966;2024-02-21T06:47:41;1.92;76.82
65203;HTU21D;51788;45.124;38.966;2024-02-21T06:50:07;1.96;76.92
65203;HTU21D;51788;45.124;38.966;2024-02-21T06:52:35;2.09;76.83
65203;HTU21D;51788;45.124;38.966;2024-02-21T06:55:01;2.19;76.59
65203;HTU21D;51788;45.124;38.966;2024-02-21T06:57:28;2.34;76.44
65203;HTU21D;51788;45.124;38.966;2024-02-21T06:59:55;2.40;76.11
65203;HTU21D;51788;45.124;38.966;2024-02-21T07:02:21;2.36;76.02
65203;HTU21D;51788;45.124;38.966;2024-02-21T07:04:47;2.31;76.10
65203;HTU21D;51788;45.124;38.966;2024-02-21T07:07:13;2.23;76.31
65203;HTU21D;51788;45.124;38.966;2024-02-21T07:09:39;2.20;76.66
65203;HTU21D;51788;45.124;38.966;2024-02-21T07:12:05;2.29;76.48
65203;HTU21D;51788;45.124;38.966;2024-02-21T07:14:36;2.30;76.55
65203;HTU21D;51788;45.124;38.966;2024-02-21T07:17:02;2.38;76.32
65203;HTU21D;51788;45.124;38.966;2024-02-21T07:19:28;2.49;76.22
65203;HTU21D;51788;45.124;38.966;2024-02-21T07:21:54;2.53;75.89
65203;HTU21D;51788;45.124;38.966;2024-02-21T07:24:20;2.56;75.90
65203;HTU21D;51788;45.124;38.966;2024-02-21T07:26:45;2.70;75.85
65203;HTU21D;51788;45.124;38.966;2024-02-21T07:29:11;2.78;75.74
65203;HTU21D;51788;45.124;38.966;2024-02-21T07:31:44;2.91;75.70
65203;HTU21D;51788;45.124;38.966;2024-02-21T07:34:10;3.04;75.47
65203;HTU21D;51788;45.124;38.966;2024-02-21T07:36:36;3.16;75.30
65203;HTU21D;51788;45.124;38.966;2024-02-21T07:39:05;3.20;75.17
65203;HTU21D;51788;45.124;38.966;2024-02-21T07:41:32;3.29;75.10
65203;HTU21D;51788;45.124;38.966;2024-02-21T07:43:59;3.40;74.90
65203;HTU21D;51788;45.124;38.966;2024-02-21T07:46:25;3.42;74.82
65203;HTU21D;51788;45.124;38.966;2024-02-21T07:48:51;3.40;74.91
65203;HTU21D;51788;45.124;38.966;2024-02-21T07:51:17;3.47;74.92
65203;HTU21D;51788;45.124;38.966;2024-02-21T07:53:44;3.43;74.76
65203;HTU21D;51788;45.124;38.966;2024-02-21T07:56:11;3.34;75.12
65203;HTU21D;51788;45.124;38.966;2024-02-21T07:58:37;3.25;75.14
65203;HTU21D;51788;45.124;38.966;2024-02-21T08:01:04;3.17;75.45
65203;HTU21D;51788;45.124;38.966;2024-02-21T08:03:30;3.25;75.37
65203;HTU21D;51788;45.124;38.966;2024-02-21T08:05:55;3.32;75.09
65203;HTU21D;51788;45.124;38.966;2024-02-21T08:08:21;3.41;74.77
65203;HTU21D;51788;45.124;38.966;2024-02-21T08:10:48;3.50;74.72
65203;HTU21D;51788;45.124;38.966;2024-02-21T08:13:14;3.63;74.63
65203;HTU21D;51788;45.124;38.966;2024-02-21T08:15:41;3.70;74.30
65203;HTU21D;51788;45.124;38.966;2024-02-21T08:18:10;3.59;74.57
65203;HTU21D;51788;45.124;38.966;2024-02-21T08:20:36;3.61;74.67
65203;HTU21D;51788;45.124;38.966;2024-02-21T08:23:02;3.74;74.48
65203;HTU21D;51788;45.124;38.966;2024-02-21T08:25:28;3.83;74.39
65203;HTU21D;51788;45.124;38.966;2024-02-21T08:27:58;3.80;74.38
65203;HTU21D;51788;45.124;38.966;2024-02-21T08:30:24;3.78;74.22
65203;HTU21D;51788;45.124;38.966;2024-02-21T08:32:50;3.79;74.64
65203;HTU21D;51788;45.124;38.966;2024-02-21T08:35:16;3.92;74.55
65203;HTU21D;51788;45.124;38.966;2024-02-21T08:37:46;4.08;74.42
65203;HTU21D;51788;45.124;38.966;2024-02-21T08:40:14;4.16;73.03
65203;HTU21D;51788;45.124;38.966;2024-02-21T08:42:43;4.04;73.33
65203;HTU21D;51788;45.124;38.966;2024-02-21T08:45:09;4.09;73.88
65203;HTU21D;51788;45.124;38.966;2024-02-21T08:47:36;4.21;73.64
65203;HTU21D;51788;45.124;38.966;2024-02-21T08:50:03;4.31;73.64
65203;HTU21D;51788;45.124;38.966;2024-02-21T08:52:28;4.49;73.42
65203;HTU21D;51788;45.124;38.966;2024-02-21T08:54:54;4.63;73.26
65203;HTU21D;51788;45.124;38.966;2024-02-21T08:57:20;4.81;73.12
65203;HTU21D;51788;45.124;38.966;2024-02-21T08:59:46;4.94;72.88
65203;HTU21D;51788;45.124;38.966;2024-02-21T09:02:13;5.13;72.77
65203;HTU21D;51788;45.124;38.966;2024-02-21T09:04:42;5.32;72.41
65203;HTU21D;51788;45.124;38.966;2024-02-21T09:07:10;5.45;72.20
65203;HTU21D;51788;45.124;38.966;2024-02-21T09:09:36;5.49;71.81
65203;HTU21D;51788;45.124;38.966;2024-02-21T09:12:06;5.55;71.78
65203;HTU21D;51788;45.124;38.966;2024-02-21T09:14:33;5.54;71.66
65203;HTU21D;51788;45.124;38.966;2024-02-21T09:16:59;5.47;72.07
65203;HTU21D;51788;45.124;38.966;2024-02-21T09:19:25;5.47;72.17
65203;HTU21D;51788;45.124;38.966;2024-02-21T09:21:51;5.33;71.96
65203;HTU21D;51788;45.124;38.966;2024-02-21T09:24:17;5.16;72.69
65203;HTU21D;51788;45.124;38.966;2024-02-21T09:26:44;5.04;72.94
65203;HTU21D;51788;45.124;38.966;2024-02-21T09:29:10;4.93;72.87
65203;HTU21D;51788;45.124;38.966;2024-02-21T09:31:36;4.79;73.27
65203;HTU21D;51788;45.124;38.966;2024-02-21T09:34:02;4.78;73.35
65203;HTU21D;51788;45.124;38.966;2024-02-21T09:36:28;4.82;73.32
65203;HTU21D;51788;45.124;38.966;2024-02-21T09:38:54;4.97;73.10
65203;HTU21D;51788;45.124;38.966;2024-02-21T09:41:27;5.18;72.69
65203;HTU21D;51788;45.124;38.966;2024-02-21T09:43:53;5.19;72.41
65203;HTU21D;51788;45.124;38.966;2024-02-21T09:46:23;5.18;72.46
65203;HTU21D;51788;45.124;38.966;2024-02-21T09:49:51;4.98;72.61
65203;HTU21D;51788;45.124;38.966;2024-02-21T09:52:05;5.05;72.83
65203;HTU21D;51788;45.124;38.966;2024-02-21T09:54:34;5.20;72.55
65203;HTU21D;51788;45.124;38.966;2024-02-21T09:57:04;5.17;72.29
65203;HTU21D;51788;45.124;38.966;2024-02-21T09:59:32;5.08;72.38
65203;HTU21D;51788;45.124;38.966;2024-02-21T10:01:59;4.90;72.84
65203;HTU21D;51788;45.124;38.966;2024-02-21T10:04:26;4.97;72.79
65203;HTU21D;51788;45.124;38.966;2024-02-21T10:06:53;4.98;72.72
65203;HTU21D;51788;45.124;38.966;2024-02-21T10:09:29;4.98;72.72
65203;HTU21D;51788;45.124;38.966;2024-02-21T10:11:56;4.91;72.76
65203;HTU21D;51788;45.124;38.966;2024-02-21T10:14:22;4.91;72.83
65203;HTU21D;51788;45.124;38.966;2024-02-21T10:16:56;5.08;72.70
65203;HTU21D;51788;45.124;38.966;2024-02-21T10:19:23;5.15;72.25
65203;HTU21D;51788;45.124;38.966;2024-02-21T10:22:03;4.98;72.51
65203;HTU21D;51788;45.124;38.966;2024-02-21T10:24:30;5.08;72.69
65203;HTU21D;51788;45.124;38.966;2024-02-21T10:27:07;5.30;71.93
65203;HTU21D;51788;45.124;38.966;2024-02-21T10:29:35;5.22;71.79
65203;HTU21D;51788;45.124;38.966;2024-02-21T10:32:11;5.30;71.99
65203;HTU21D;51788;45.124;38.966;2024-02-21T10:34:39;5.34;71.84
65203;HTU21D;51788;45.124;38.966;2024-02-21T10:37:06;5.25;71.83
65203;HTU21D;51788;45.124;38.966;2024-02-21T10:39:43;5.03;72.09
65203;HTU21D;51788;45.124;38.966;2024-02-21T10:42:14;4.94;72.19
65203;HTU21D;51788;45.124;38.966;2024-02-21T10:44:44;4.91;72.35
65203;HTU21D;51788;45.124;38.966;2024-02-21T10:47:11;4.97;72.32
65203;HTU21D;51788;45.124;38.966;2024-02-21T10:49:44;4.98;72.35
65203;HTU21D;51788;45.124;38.966;2024-02-21T10:52:14;5.07;72.34
65203;HTU21D;51788;45.124;38.966;2024-02-21T10:54:56;5.21;72.08
65203;HTU21D;51788;45.124;38.966;2024-02-21T10:57:25;5.41;71.79
65203;HTU21D;51788;45.124;38.966;2024-02-21T10:59:55;5.60;71.43
65203;HTU21D;51788;45.124;38.966;2024-02-21T11:02:22;5.71;71.16
65203;HTU21D;51788;45.124;38.966;2024-02-21T11:04:48;5.51;71.20
65203;HTU21D;51788;45.124;38.966;2024-02-21T11:07:15;5.54;71.47
65203;HTU21D;51788;45.124;38.966;2024-02-21T11:09:51;5.47;71.57
65203;HTU21D;51788;45.124;38.966;2024-02-21T11:12:21;5.40;71.45
65203;HTU21D;51788;45.124;38.966;2024-02-21T11:14:48;5.38;71.39
65203;HTU21D;51788;45.124;38.966;2024-02-21T11:17:17;5.28;71.58
65203;HTU21D;51788;45.124;38.966;2024-02-21T11:19:44;5.37;71.24
65203;HTU21D;51788;45.124;38.966;2024-02-21T11:22:18;5.32;70.98
65203;HTU21D;51788;45.124;38.966;2024-02-21T11:24:44;5.24;71.14
65203;HTU21D;51788;45.124;38.966;2024-02-21T11:27:14;5.35;71.02
65203;HTU21D;51788;45.124;38.966;2024-02-21T11:29:47;5.54;70.90
65203;HTU21D;51788;45.124;38.966;2024-02-21T11:32:20;5.52;70.64
65203;HTU21D;51788;45.124;38.966;2024-02-21T11:34:59;5.39;70.84
65203;HTU21D;51788;45.124;38.966;2024-02-21T11:37:32;5.41;70.93
65203;HTU21D;51788;45.124;38.966;2024-02-21T11:40:00;5.32;70.45
65203;HTU21D;51788;45.124;38.966;2024-02-21T11:42:26;5.11;70.86
65203;HTU21D;51788;45.124;38.966;2024-02-21T11:44:53;5.02;71.23
65203;HTU21D;51788;45.124;38.966;2024-02-21T11:47:22;5.04;71.13
65203;HTU21D;51788;45.124;38.966;2024-02-21T11:49:49;5.09;70.69
65203;HTU21D;51788;45.124;38.966;2024-02-21T11:52:21;5.04;71.03
65203;HTU21D;51788;45.124;38.966;2024-02-21T11:54:51;5.11;70.93
65203;HTU21D;51788;45.124;38.966;2024-02-21T11:57:18;5.09;70.81
65203;HTU21D;51788;45.124;38.966;2024-02-21T11:59:47;5.02;70.90
65203;HTU21D;51788;45.124;38.966;2024-02-21T12:02:14;5.02;70.96
65203;HTU21D;51788;45.124;38.966;2024-02-21T12:04:42;4.97;70.91
65203;HTU21D;51788;45.124;38.966;2024-02-21T12:07:08;4.95;71.12
65203;HTU21D;51788;45.124;38.966;2024-02-21T12:09:34;4.93;70.76
65203;HTU21D;51788;45.124;38.966;2024-02-21T12:12:04;4.75;70.96
65203;HTU21D;51788;45.124;38.966;2024-02-21T12:14:32;4.64;71.07
65203;HTU21D;51788;45.124;38.966;2024-02-21T12:16:59;4.65;71.24
65203;HTU21D;51788;45.124;38.966;2024-02-21T12:19:28;4.72;70.98
65203;HTU21D;51788;45.124;38.966;2024-02-21T12:21:55;4.84;71.06
65203;HTU21D;51788;45.124;38.966;2024-02-21T12:24:22;4.98;70.87
65203;HTU21D;51788;45.124;38.966;2024-02-21T12:26:49;5.01;70.75
65203;HTU21D;51788;45.124;38.966;2024-02-21T12:29:16;4.94;70.53
65203;HTU21D;51788;45.124;38.966;2024-02-21T12:31:41;4.92;70.84
65203;HTU21D;51788;45.124;38.966;2024-02-21T12:34:07;4.90;70.58
65203;HTU21D;51788;45.124;38.966;2024-02-21T12:36:40;4.80;70.67
65203;HTU21D;51788;45.124;38.966;2024-02-21T12:39:08;4.74;70.77
65203;HTU21D;51788;45.124;38.966;2024-02-21T12:41:35;4.73;70.71
65203;HTU21D;51788;45.124;38.966;2024-02-21T12:44:07;4.67;70.90
65203;HTU21D;51788;45.124;38.966;2024-02-21T12:46:34;4.75;71.00
65203;HTU21D;51788;45.124;38.966;2024-02-21T12:49:01;4.75;70.89
65203;HTU21D;51788;45.124;38.966;2024-02-21T12:51:27;4.75;70.97
65203;HTU21D;51788;45.124;38.966;2024-02-21T12:53:53;4.73;70.97
65203;HTU21D;51788;45.124;38.966;2024-02-21T12:56:19;4.77;70.95
65203;HTU21D;51788;45.124;38.966;2024-02-21T12:58:45;4.82;70.90
65203;HTU21D;51788;45.124;38.966;2024-02-21T13:01:11;4.79;70.80
65203;HTU21D;51788;45.124;38.966;2024-02-21T13:03:37;4.68;70.90
65203;HTU21D;51788;45.124;38.966;2024-02-21T13:06:04;4.66;71.01
65203;HTU21D;51788;45.124;38.966;2024-02-21T13:08:30;4.65;71.00
65203;HTU21D;51788;45.124;38.966;2024-02-21T13:10:56;4.65;70.78
65203;HTU21D;51788;45.124;38.966;2024-02-21T13:13:22;4.62;70.90
65203;HTU21D;51788;45.124;38.966;2024-02-21T13:15:48;4.62;70.72
65203;HTU21D;51788;45.124;38.966;2024-02-21T13:18:14;4.62;70.81
65203;HTU21D;51788;45.124;38.966;2024-02-21T13:20:40;4.66;70.71
65203;HTU21D;51788;45.124;38.966;2024-02-21T13:23:06;4.72;70.65
65203;HTU21D;51788;45.124;38.966;2024-02-21T13:25:33;4.69;70.62
65203;HTU21D;51788;45.124;38.966;2024-02-21T13:27:59;4.62;70.59
65203;HTU21D;51788;45.124;38.966;2024-02-21T13:30:24;4.58;70.84
65203;HTU21D;51788;45.124;38.966;2024-02-21T13:32:51;4.60;70.71
65203;HTU21D;51788;45.124;38.966;2024-02-21T13:35:17;4.57;70.71
65203;HTU21D;51788;45.124;38.966;2024-02-21T13:37:43;4.51;70.81
65203;HTU21D;51788;45.124;38.966;2024-02-21T13:40:09;4.46;70.96
65203;HTU21D;51788;45.124;38.966;2024-02-21T13:42:38;4.46;71.04
65203;HTU21D;51788;45.124;38.966;2024-02-21T13:45:06;4.45;70.99
65203;HTU21D;51788;45.124;38.966;2024-02-21T13:47:33;4.44;70.50
65203;HTU21D;51788;45.124;38.966;2024-02-21T13:49:59;4.43;70.74
65203;HTU21D;51788;45.124;38.966;2024-02-21T13:52:25;4.48;70.77
65203;HTU21D;51788;45.124;38.966;2024-02-21T13:54:54;4.46;70.74
65203;HTU21D;51788;45.124;38.966;2024-02-21T13:57:20;4.45;70.86
65203;HTU21D;51788;45.124;38.966;2024-02-21T13:59:46;4.47;70.47
65203;HTU21D;51788;45.124;38.966;2024-02-21T14:02:12;4.42;70.52
65203;HTU21D;51788;45.124;38.966;2024-02-21T14:04:39;4.38;70.55
65203;HTU21D;51788;45.124;38.966;2024-02-21T14:07:05;4.37;70.77
65203;HTU21D;51788;45.124;38.966;2024-02-21T14:09:31;4.41;70.81
65203;HTU21D;51788;45.124;38.966;2024-02-21T14:11:58;4.44;70.40
65203;HTU21D;51788;45.124;38.966;2024-02-21T14:14:24;4.38;70.56
65203;HTU21D;51788;45.124;38.966;2024-02-21T14:16:50;4.35;70.63
65203;HTU21D;51788;45.124;38.966;2024-02-21T14:19:16;4.34;70.58
65203;HTU21D;51788;45.124;38.966;2024-02-21T14:21:43;4.31;70.61
65203;HTU21D;51788;45.124;38.966;2024-02-21T14:24:11;4.28;70.79
65203;HTU21D;51788;45.124;38.966;2024-02-21T14:26:37;4.26;70.70
65203;HTU21D;51788;45.124;38.966;2024-02-21T14:29:03;4.19;70.82
65203;HTU21D;51788;45.124;38.966;2024-02-21T14:31:32;4.14;70.88
65203;HTU21D;51788;45.124;38.966;2024-02-21T14:33:58;4.10;70.97
65203;HTU21D;51788;45.124;38.966;2024-02-21T14:36:26;4.06;71.00
65203;HTU21D;51788;45.124;38.966;2024-02-21T14:38:52;4.03;71.05
65203;HTU21D;51788;45.124;38.966;2024-02-21T14:41:18;4.06;71.06
65203;HTU21D;51788;45.124;38.966;2024-02-21T14:43:44;4.08;71.03
65203;HTU21D;51788;45.124;38.966;2024-02-21T14:46:11;4.04;71.02
65203;HTU21D;51788;45.124;38.966;2024-02-21T14:48:38;3.98;71.03
65203;HTU21D;51788;45.124;38.966;2024-02-21T14:51:04;4.00;71.14
65203;HTU21D;51788;45.124;38.966;2024-02-21T14:53:30;4.00;71.03
65203;HTU21D;51788;45.124;38.966;2024-02-21T14:55:57;3.95;71.11
65203;HTU21D;51788;45.124;38.966;2024-02-21T14:58:25;3.90;71.21
65203;HTU21D;51788;45.124;38.966;2024-02-21T15:00:53;3.84;71.32
65203;HTU21D;51788;45.124;38.966;2024-02-21T15:03:19;3.75;71.46
65203;HTU21D;51788;45.124;38.966;2024-02-21T15:05:46;3.67;71.61
65203;HTU21D;51788;45.124;38.966;2024-02-21T15:08:13;3.61;71.72
65203;HTU21D;51788;45.124;38.966;2024-02-21T15:10:45;3.55;71.84
65203;HTU21D;51788;45.124;38.966;2024-02-21T15:13:11;3.48;71.96
65203;HTU21D;51788;45.124;38.966;2024-02-21T15:15:37;3.40;72.06